^^
Meteo Knjazevac Station Historical Data
Daily Summary for March 11, 2021 Units:  English    Metric   Both
Daily Weekly Monthly Yearly Custom
  High: Low: Average:
Temperature: 96.1 °F 62.4 °F 78.7 °F
Dew Point: 69 °F 58.7 °F 62.6 °F
Humidity: 89% 32% 62%
Wind Speed: 6mph 0mph 1.8mph
Wind Gust: 13mph - -
Wind- - SE
Pressure: 30.10 in 29.99 in -
Precipitation: 0.00 in    
Historical Graphs
 
 
Tabular Data for March 11, 2021
Time Temperature Dew Point Pressure Wind Wind Speed Wind Gust Humidity Rainfall Rate (Hourly) solar Conditions
00:00 69.6 °F 60.6 °F 30.09 in West 1 mph 2 mph 73% 0.00 in 0 W/m2
00:10 69.6 °F 60.6 °F 30.09 in NW 1 mph 2 mph 73% 0.00 in 0 W/m2
00:20 69.1 °F 60.5 °F 30.09 in Calm   2 mph 74% 0.00 in 0 W/m2
00:30 69.1 °F 60.4 °F 30.08 in Calm   1 mph 74% 0.00 in 0 W/m2
00:40 68.7 °F 60.1 °F 30.08 in Calm   2 mph 74% 0.00 in 0 W/m2
00:50 68.5 °F 60.3 °F 30.08 in North 1 mph 2 mph 75% 0.00 in 0 W/m2
01:00 68 °F 59.8 °F 30.08 in WSW 1 mph 2 mph 75% 0.00 in 0 W/m2
01:10 67.5 °F 60 °F 30.08 in West 1 mph 3 mph 77% 0.00 in 0 W/m2
01:20 67.3 °F 60.2 °F 30.08 in WSW 1 mph 2 mph 78% 0.00 in 0 W/m2
01:30 66.9 °F 59.8 °F 30.08 in Calm   2 mph 78% 0.00 in 0 W/m2
01:40 66.4 °F 59.7 °F 30.08 in WSW 1 mph 2 mph 79% 0.00 in 0 W/m2
01:50 66 °F 59.3 °F 30.08 in Calm   1 mph 79% 0.00 in 0 W/m2
02:00 66 °F 59.7 °F 30.08 in Calm   1 mph 80% 0.00 in 0 W/m2
02:10 66 °F 59.7 °F 30.08 in Calm   2 mph 80% 0.00 in 0 W/m2
02:20 66 °F 59.7 °F 30.08 in Calm   2 mph 80% 0.00 in 0 W/m2
02:30 65.8 °F 59.5 °F 30.08 in West 1 mph 2 mph 80% 0.00 in 0 W/m2
02:40 65.5 °F 59.2 °F 30.08 in Calm   2 mph 80% 0.00 in 0 W/m2
02:50 65.3 °F 59.3 °F 30.08 in Calm   3 mph 81% 0.00 in 0 W/m2
03:00 65.1 °F 59.1 °F 30.08 in West 1 mph 2 mph 81% 0.00 in 0 W/m2
03:10 64.6 °F 59.3 °F 30.07 in Calm   3 mph 83% 0.00 in 0 W/m2
03:20 64.2 °F 59.3 °F 30.08 in WNW 2 mph 5 mph 84% 0.00 in 0 W/m2
03:30 64.2 °F 59.3 °F 30.07 in Calm   5 mph 84% 0.00 in 0 W/m2
03:40 64.2 °F 59.6 °F 30.07 in Calm   2 mph 85% 0.00 in 0 W/m2
03:50 63.9 °F 59.3 °F 30.07 in WSW 2 mph 4 mph 85% 0.00 in 0 W/m2
04:00 63.9 °F 59.6 °F 30.07 in West 3 mph 5 mph 86% 0.00 in 0 W/m2
04:10 63.7 °F 59.1 °F 30.07 in West 1 mph 3 mph 85% 0.00 in 0 W/m2
04:20 63.3 °F 59.1 °F 30.07 in West 1 mph 2 mph 86% 0.00 in 0 W/m2
04:30 63.3 °F 59.1 °F 30.07 in WSW 1 mph 2 mph 86% 0.00 in 0 W/m2
04:40 63.1 °F 58.9 °F 30.07 in West 1 mph 4 mph 86% 0.00 in 0 W/m2
04:50 63.1 °F 58.9 °F 30.08 in Calm   3 mph 86% 0.00 in 0 W/m2
05:00 63.1 °F 58.9 °F 30.08 in Calm   2 mph 86% 0.00 in 0 W/m2
05:10 63.1 °F 58.9 °F 30.08 in Calm   2 mph 86% 0.00 in 0 W/m2
05:20 63 °F 58.7 °F 30.08 in Calm   2 mph 86% 0.00 in 0 W/m2
05:30 63 °F 59.3 °F 30.08 in Calm   2 mph 88% 0.00 in 0 W/m2
05:40 63 °F 59.3 °F 30.08 in NW 1 mph 2 mph 88% 0.00 in 7 W/m2
05:50 62.8 °F 59.2 °F 30.09 in Calm   2 mph 88% 0.00 in 16 W/m2
06:00 62.8 °F 59.2 °F 30.09 in Calm   1 mph 88% 0.00 in 26 W/m2
06:10 62.6 °F 59 °F 30.09 in Calm   2 mph 88% 0.00 in 40 W/m2
06:20 62.4 °F 58.8 °F 30.09 in Calm   2 mph 88% 0.00 in 57 W/m2
06:30 62.4 °F 59.1 °F 30.09 in NW 1 mph 2 mph 89% 0.00 in 79 W/m2
06:40 62.8 °F 59.5 °F 30.09 in Calm   2 mph 89% 0.00 in 86 W/m2
06:50 63.1 °F 59.8 °F 30.09 in Calm     89% 0.00 in 174 W/m2
07:00 64 °F 60.7 °F 30.10 in Calm   2 mph 89% 0.00 in 144 W/m2
07:10 64.6 °F 60.9 °F 30.09 in NW 2 mph 4 mph 88% 0.00 in 90 W/m2
07:20 64.9 °F 61.3 °F 30.10 in WSW 1 mph 5 mph 88% 0.00 in 218 W/m2
07:30 65.3 °F 61 °F 30.10 in Calm   2 mph 86% 0.00 in 239 W/m2
07:40 65.7 °F 61.4 °F 30.10 in WNW 1 mph 2 mph 86% 0.00 in 275 W/m2
07:50 66.2 °F 61.9 °F 30.10 in WSW 1 mph 2 mph 86% 0.00 in 317 W/m2
08:00 66.9 °F 62.3 °F 30.10 in Calm   2 mph 85% 0.00 in 334 W/m2
08:10 67.7 °F 62.6 °F 30.10 in NNE 1 mph 3 mph 84% 0.00 in 429 W/m2
08:20 68.5 °F 63.2 °F 30.10 in NNE 1 mph 3 mph 83% 0.00 in 186 W/m2
08:30 69.1 °F 63 °F 30.10 in NNE 1 mph 4 mph 81% 0.00 in 455 W/m2
08:40 70 °F 63.5 °F 30.10 in ESE 1 mph 3 mph 80% 0.00 in 521 W/m2
08:50 70.9 °F 64 °F 30.10 in SE 1 mph 3 mph 79% 0.00 in 520 W/m2
09:00 72.3 °F 64.7 °F 30.10 in NNE 2 mph 5 mph 77% 0.00 in 551 W/m2
09:10 74.3 °F 65.5 °F 30.10 in ENE 1 mph 5 mph 74% 0.00 in 582 W/m2
09:20 76.1 °F 65.2 °F 30.09 in NNE 2 mph 5 mph 69% 0.00 in 632 W/m2
09:30 77.2 °F 65.8 °F 30.10 in North 2 mph 6 mph 68% 0.00 in 658 W/m2
09:40 78.5 °F 67 °F 30.10 in NNE 2 mph 7 mph 68% 0.00 in 683 W/m2
09:50 79.5 °F 66.3 °F 30.09 in NNE 6 mph 9 mph 64% 0.00 in 707 W/m2
10:00 80.1 °F 66.8 °F 30.09 in NNE 3 mph 9 mph 64% 0.00 in 730 W/m2
10:10 81.1 °F 67.8 °F 30.09 in NNE 2 mph 9 mph 64% 0.00 in 751 W/m2
10:20 82.1 °F 67.7 °F 30.09 in NNE 3 mph 9 mph 62% 0.00 in 771 W/m2
10:30 83.3 °F 67.5 °F 30.09 in NNE 6 mph 10 mph 59% 0.00 in 791 W/m2
10:40 84.2 °F 68.3 °F 30.08 in NNE 3 mph 9 mph 59% 0.00 in 771 W/m2
10:50 85.1 °F 68.7 °F 30.08 in NNE 2 mph 10 mph 58% 0.00 in 247 W/m2
11:00 86 °F 69 °F 30.07 in North 5 mph 8 mph 57% 0.00 in 830 W/m2
11:10 86.5 °F 67.4 °F 30.07 in NNE 6 mph 10 mph 53% 0.00 in 480 W/m2
11:20 87.1 °F 68.4 °F 30.06 in NNE 2 mph 10 mph 54% 0.00 in 261 W/m2
11:30 88 °F 67 °F 30.06 in NNE 1 mph 6 mph 50% 0.00 in 876 W/m2
11:40 88.7 °F 67.1 °F 30.06 in North 5 mph 12 mph 49% 0.00 in 885 W/m2
11:50 89.4 °F 65.3 °F 30.06 in NNE 5 mph 8 mph 45% 0.00 in 893 W/m2
12:00 89.6 °F 66.7 °F 30.06 in NNE 1 mph 9 mph 47% 0.00 in 899 W/m2
12:10 90.3 °F 64.8 °F 30.06 in NNE 5 mph 9 mph 43% 0.00 in 904 W/m2
12:20 90.5 °F 65.6 °F 30.06 in North 2 mph 9 mph 44% 0.00 in 907 W/m2
12:30 91.2 °F 64.9 °F 30.05 in NNE 3 mph 9 mph 42% 0.00 in 908 W/m2
12:40 91.2 °F 64.9 °F 30.05 in NNE 2 mph 10 mph 42% 0.00 in 908 W/m2
12:50 92.1 °F 62.9 °F 30.05 in NNE 2 mph 9 mph 38% 0.00 in 906 W/m2
13:00 92.7 °F 66.2 °F 30.05 in North 1 mph 8 mph 42% 0.00 in 903 W/m2
13:10 93 °F 65.2 °F 30.04 in NNE 3 mph 12 mph 40% 0.00 in 898 W/m2
13:20 93 °F 61.3 °F 30.04 in North 3 mph 9 mph 35% 0.00 in 891 W/m2
13:30 93.6 °F 64.1 °F 30.04 in NNE 3 mph 9 mph 38% 0.00 in 883 W/m2
13:40 94.1 °F 63.9 °F 30.04 in NNE 5 mph 8 mph 37% 0.00 in 874 W/m2
13:50 94.3 °F 64 °F 30.03 in North 3 mph 8 mph 37% 0.00 in 863 W/m2
14:00 94.8 °F 64.5 °F 30.02 in North 3 mph 9 mph 37% 0.00 in 850 W/m2
14:10 95.2 °F 61.5 °F 30.02 in North 3 mph 13 mph 33% 0.00 in 836 W/m2
14:20 95.2 °F 60.7 °F 30.02 in North 5 mph 11 mph 32% 0.00 in 821 W/m2
14:30 95.5 °F 65.1 °F 30.02 in North 1 mph 9 mph 37% 0.00 in 804 W/m2
14:40 95.7 °F 65.3 °F 30.02 in NNE 3 mph 8 mph 37% 0.00 in 786 W/m2
14:50 95.7 °F 65.3 °F 30.01 in NNE 2 mph 10 mph 37% 0.00 in 767 W/m2
15:00 95.7 °F 62.9 °F 30.01 in North 3 mph 12 mph 34% 0.00 in 746 W/m2
15:10 96.1 °F 65.6 °F 30.01 in NE 3 mph 11 mph 37% 0.00 in 724 W/m2
15:20 96.1 °F 64 °F 30.01 in NNE 6 mph 10 mph 35% 0.00 in 701 W/m2
15:30 95.9 °F 62.2 °F 30.01 in North 5 mph 11 mph 33% 0.00 in 677 W/m2
15:40 95.7 °F 65.3 °F 30.00 in North 2 mph 10 mph 37% 0.00 in 652 W/m2
15:50 95.7 °F 63.7 °F 30.00 in NNE 5 mph 8 mph 35% 0.00 in 399 W/m2
16:00 95.5 °F 62.7 °F 30.00 in NNE 5 mph 12 mph 34% 0.00 in 599 W/m2
16:10 95.4 °F 65 °F 30.00 in North 2 mph 12 mph 37% 0.00 in 572 W/m2
16:20 95.4 °F 65 °F 30.00 in NNE 2 mph 8 mph 37% 0.00 in 543 W/m2
16:30 95.4 °F 63.4 °F 30.00 in North 5 mph 12 mph 35% 0.00 in 514 W/m2
16:40 95.5 °F 63.5 °F 30.00 in NNE 2 mph 9 mph 35% 0.00 in 478 W/m2
16:50 95.4 °F 63.4 °F 29.99 in North 5 mph 9 mph 35% 0.00 in 447 W/m2
17:00 95.3 °F 63.3 °F 29.99 in North 3 mph 7 mph 35% 0.00 in 150 W/m2
17:10 94.3 °F 62.4 °F 29.99 in North 2 mph 8 mph 35% 0.00 in 368 W/m2
17:20 94.2 °F 64 °F 29.99 in North 1 mph 9 mph 37% 0.00 in 329 W/m2
17:30 94.1 °F 63.8 °F 30.00 in North 3 mph 8 mph 37% 0.00 in 140 W/m2
17:40 93.2 °F 63.1 °F 29.99 in North 2 mph 7 mph 37% 0.00 in 262 W/m2
17:50 93.1 °F 62.9 °F 29.99 in North 2 mph 8 mph 37% 0.00 in 222 W/m2
18:00 93 °F 63.7 °F 30.00 in NNW 3 mph 8 mph 38% 0.00 in 103 W/m2
18:10 92.1 °F 62.8 °F 30.00 in North 2 mph 7 mph 38% 0.00 in 91 W/m2
18:20 91.2 °F 62.8 °F 29.99 in NNW 2 mph 6 mph 39% 0.00 in 79 W/m2
18:30 90.3 °F 62 °F 30.00 in NNW 2 mph 5 mph 39% 0.00 in 68 W/m2
18:40 89.6 °F 62.1 °F 30.00 in NNW 1 mph 5 mph 40% 0.00 in 62 W/m2
18:50 89.1 °F 63.7 °F 30.00 in Calm   3 mph 43% 0.00 in 70 W/m2
19:00 88.9 °F 63.5 °F 30.01 in NW 1 mph 3 mph 43% 0.00 in 50 W/m2
19:10 88.3 °F 63.6 °F 30.01 in West 2 mph 4 mph 44% 0.00 in 28 W/m2
19:20 87.4 °F 63.5 °F 30.01 in West 2 mph 4 mph 45% 0.00 in 15 W/m2
19:30 86.5 °F 64.5 °F 30.02 in South 1 mph 3 mph 48% 0.00 in 8 W/m2
23:50 68.5 °F 59.2 °F 30.09 in NNW 1 mph 3 mph 72% 0.00 in 0 W/m2
Knjazevac, Serbia
Compliments of Weather Underground - 2 mb